Time;durP1;ratioP1;P1;durP2;ratioP2;P2;SDS_P1;SDS_P2;PMS_P1;PMS_P2;Temp;Humidity;BMP_temperature;BMP_pressure;BME280_temperature;BME280_humidity;BME280_pressure;Samples;Min_cycle;Max_cycle;Signal;HPM_P1;HPM_P2
2023/04/19 00:00:38;;;;;;;0.17;0.17;;;;;;;10.12;100.00;97299.72;5012368;28;20028;-88
2023/04/19 00:03:09;;;;;;;0.40;0.40;;;;;;;10.05;100.00;97285.03;5012059;28;20385;-88
2023/04/19 00:05:37;;;;;;;1.17;0.95;;;;;;;10.07;100.00;97283.13;5012045;28;20025;-88
2023/04/19 00:08:03;;;;;;;0.75;0.57;;;;;;;10.09;100.00;97280.38;5012234;28;20153;-87
2023/04/19 00:10:29;;;;;;;0.50;0.50;;;;;;;10.06;100.00;97276.03;5012105;28;20109;-88
2023/04/19 00:12:54;;;;;;;0.73;0.73;;;;;;;10.04;100.00;97271.75;5011831;28;20498;-88
2023/04/19 00:15:20;;;;;;;0.30;0.30;;;;;;;10.12;100.00;97281.00;5012028;28;20029;-88
2023/04/19 00:17:45;;;;;;;0.57;0.40;;;;;;;10.18;100.00;97275.28;5011618;28;20025;-87
2023/04/19 00:20:12;;;;;;;0.85;0.45;;;;;;;10.21;100.00;97285.78;5028056;28;20090;-87
2023/04/19 00:22:38;;;;;;;0.40;0.40;;;;;;;10.23;100.00;97283.88;5012074;28;20022;-88
2023/04/19 00:25:04;;;;;;;0.68;0.68;;;;;;;10.23;100.00;97281.22;5011517;28;20056;-88
2023/04/19 00:27:29;;;;;;;0.40;0.40;;;;;;;10.14;100.00;97257.75;5011557;28;20112;-87
2023/04/19 00:29:56;;;;;;;0.28;0.25;;;;;;;10.14;100.00;97257.75;5011730;28;20496;-88
2023/04/19 00:32:22;;;;;;;0.35;0.35;;;;;;;10.13;100.00;97260.47;5011477;28;20033;-87
2023/04/19 00:34:48;;;;;;;1.73;0.80;;;;;;;10.13;100.00;97260.47;5011881;28;20044;-87
2023/04/19 00:37:13;;;;;;;0.40;0.40;;;;;;;10.12;100.00;97259.63;5010671;28;20037;-86
2023/04/19 00:39:39;;;;;;;3.72;0.38;;;;;;;10.14;100.00;97262.25;5027824;28;20022;-87
2023/04/19 00:42:04;;;;;;;0.57;0.38;;;;;;;10.16;100.00;97255.84;5028186;28;20104;-87
2023/04/19 00:44:30;;;;;;;2.17;1.02;;;;;;;10.07;100.00;97253.72;5011408;28;20132;-88
2023/04/19 00:46:56;;;;;;;1.02;0.95;;;;;;;10.03;100.00;97251.38;5011561;28;20029;-88
2023/04/19 00:49:23;;;;;;;2.72;1.10;;;;;;;10.01;100.00;97248.78;5011544;28;20084;-87
2023/04/19 00:51:49;;;;;;;1.02;0.73;;;;;;;9.98;100.00;97250.78;5011369;28;20330;-88
2023/04/19 00:54:15;;;;;;;0.50;0.50;;;;;;;9.99;100.00;97256.03;5011185;28;20044;-86
2023/04/19 00:56:41;;;;;;;0.20;0.20;;;;;;;10.02;100.00;97269.22;5027741;28;20481;-87
2023/04/19 00:59:07;;;;;;;0.20;0.20;;;;;;;10.03;100.00;97270.06;5028046;28;20033;-88
2023/04/19 01:01:33;;;;;;;0.73;0.70;;;;;;;10.02;100.00;97271.00;5011481;28;20112;-87
2023/04/19 01:04:00;;;;;;;0.40;0.40;;;;;;;9.99;100.00;97263.19;5028011;28;20432;-88
2023/04/19 01:06:27;;;;;;;7.07;0.85;;;;;;;9.98;100.00;97262.34;5011482;28;20033;-87
2023/04/19 01:08:53;;;;;;;1.25;0.60;;;;;;;9.98;100.00;97270.34;5028204;28;20048;-88
2023/04/19 01:11:18;;;;;;;2.25;1.20;;;;;;;9.96;100.00;97269.59;5011438;28;20029;-87
2023/04/19 01:13:44;;;;;;;0.30;0.30;;;;;;;9.88;100.00;97263.88;5011488;28;20499;-88
2023/04/19 01:16:09;;;;;;;0.32;0.32;;;;;;;9.90;100.00;97269.13;5028373;28;20018;-88
2023/04/19 01:18:36;;;;;;;1.75;0.57;;;;;;;9.91;100.00;97261.00;5027695;28;20039;-88
2023/04/19 01:21:03;;;;;;;1.05;0.95;;;;;;;9.93;100.00;97258.25;5027878;28;20477;-88
2023/04/19 01:23:29;;;;;;;0.30;0.30;;;;;;;9.92;100.00;97257.38;5010991;28;20064;-88
2023/04/19 01:25:54;;;;;;;1.08;1.00;;;;;;;9.93;100.00;97261.78;5011464;28;20121;-88
2023/04/19 01:28:20;;;;;;;0.35;0.30;;;;;;;9.96;100.00;97263.41;5011338;28;20108;-87
2023/04/19 01:30:46;;;;;;;0.52;0.43;;;;;;;9.92;100.00;97262.72;5010920;28;20018;-88
2023/04/19 01:33:11;;;;;;;0.88;0.70;;;;;;;9.98;100.00;97262.34;5010944;28;20021;-88
2023/04/19 01:35:37;;;;;;;1.63;0.60;;;;;;;9.93;100.00;97256.44;5027241;28;20501;-86
2023/04/19 01:38:04;;;;;;;2.08;0.90;;;;;;;9.90;100.00;97253.09;5027767;28;20165;-88
2023/04/19 01:40:29;;;;;;;0.20;0.13;;;;;;;9.85;100.00;97250.72;5011097;28;20091;-87
2023/04/19 01:42:55;;;;;;;0.80;0.57;;;;;;;9.81;100.00;97244.69;5027750;28;20029;-89
2023/04/19 01:45:20;;;;;;;0.30;0.30;;;;;;;9.74;100.00;97245.22;5011530;28;20032;-88
2023/04/19 01:47:46;;;;;;;0.47;0.45;;;;;;;9.71;100.00;97248.94;5011324;28;20032;-87
2023/04/19 01:50:11;;;;;;;0.15;0.10;;;;;;;9.66;100.00;97252.81;5014119;28;20053;-88
2023/04/19 01:52:37;;;;;;;0.57;0.40;;;;;;;9.63;100.00;97263.69;5014288;28;20550;-88
2023/04/19 01:55:02;;;;;;;0.28;0.28;;;;;;;9.62;100.00;97260.19;5031076;28;20029;-87
2023/04/19 01:57:28;;;;;;;0.38;0.38;;;;;;;9.57;100.00;97258.75;5011441;28;20033;-88
2023/04/19 01:59:53;;;;;;;0.25;0.25;;;;;;;9.64;100.00;97252.94;5014280;28;20132;-89
2023/04/19 02:02:19;;;;;;;0.43;0.43;;;;;;;9.59;100.00;97256.84;5014653;28;20029;-88
2023/04/19 02:04:45;;;;;;;0.38;0.30;;;;;;;9.63;100.00;97266.38;5013995;28;20112;-88
2023/04/19 02:07:10;;;;;;;0.98;0.82;;;;;;;9.60;100.00;97250.53;5031028;28;20030;-88
2023/04/19 02:09:37;;;;;;;0.47;0.47;;;;;;;9.58;100.00;97260.47;5030529;28;20056;-89
2023/04/19 02:12:03;;;;;;;1.15;0.70;;;;;;;9.55;100.00;97250.84;5014136;28;20017;-89
2023/04/19 02:14:29;;;;;;;0.45;0.35;;;;;;;9.64;100.00;97262.75;4998005;28;20037;-89
2023/04/19 02:16:54;;;;;;;0.85;0.28;;;;;;;9.71;100.00;97253.41;5012834;28;20491;-89
2023/04/19 02:19:20;;;;;;;1.10;0.68;;;;;;;9.71;100.00;97246.25;5014142;28;20483;-88
2023/04/19 02:21:45;;;;;;;1.60;1.00;;;;;;;9.78;100.00;97252.09;5013678;28;20025;-88
2023/04/19 02:24:11;;;;;;;1.45;1.00;;;;;;;9.76;100.00;97251.28;5014532;28;20555;-88
2023/04/19 02:26:38;;;;;;;1.45;0.70;;;;;;;9.74;100.00;97237.19;5013630;28;20036;-87
2023/04/19 02:29:04;;;;;;;0.95;0.95;;;;;;;9.79;100.00;97253.78;5013874;28;20464;-88
2023/04/19 02:31:29;;;;;;;0.85;0.85;;;;;;;9.68;100.00;97240.25;5013833;28;20064;-87
2023/04/19 02:33:55;;;;;;;1.23;1.13;;;;;;;9.71;100.00;97248.06;5013762;28;20029;-89
2023/04/19 02:36:20;;;;;;;0.60;0.60;;;;;;;9.70;100.00;97241.88;5013197;28;20032;-87
2023/04/19 02:38:46;;;;;;;0.30;0.30;;;;;;;9.70;100.00;97235.66;5013492;28;20022;-87
2023/04/19 02:41:11;;;;;;;3.63;1.88;;;;;;;9.81;100.00;97244.69;5030340;28;20062;-87
2023/04/19 02:43:36;;;;;;;4.05;0.80;;;;;;;9.77;100.00;97237.00;5013477;28;20108;-87
2023/04/19 02:46:02;;;;;;;0.75;0.75;;;;;;;9.85;100.00;97242.69;5013568;28;20025;-88
2023/04/19 02:48:28;;;;;;;1.90;1.23;;;;;;;9.85;100.00;97234.69;5013589;28;20040;-89
2023/04/19 02:50:53;;;;;;;0.60;0.60;;;;;;;9.76;100.00;97220.09;5012828;28;20117;-87
2023/04/19 02:53:19;;;;;;;2.10;0.98;;;;;;;9.80;100.00;97231.47;5013315;28;20145;-88
2023/04/19 02:55:44;;;;;;;0.43;0.43;;;;;;;9.76;100.00;97224.59;5013587;28;20090;-88
2023/04/19 02:58:10;;;;;;;3.08;1.83;;;;;;;9.78;100.00;97222.69;5013838;28;20036;-88
2023/04/19 03:00:35;;;;;;;2.28;2.08;;;;;;;9.78;100.00;97230.72;5029249;28;20086;-89
2023/04/19 03:03:03;;;;;;;1.17;0.93;;;;;;;9.77;100.00;97234.31;5013791;28;20104;-88
2023/04/19 03:05:29;;;;;;;1.08;0.68;;;;;;;9.76;100.00;97236.13;5013531;28;20090;-88
2023/04/19 03:07:54;;;;;;;0.88;0.77;;;;;;;9.77;100.00;97237.88;5012820;28;20037;-88
2023/04/19 03:10:20;;;;;;;1.05;0.77;;;;;;;9.79;100.00;97235.94;5029370;28;20057;-87
2023/04/19 03:12:45;;;;;;;3.75;1.58;;;;;;;9.77;100.00;97226.31;5029169;28;20061;-88
2023/04/19 03:15:11;;;;;;;0.82;0.82;;;;;;;9.76;100.00;97232.59;5029334;28;20029;-86
2023/04/19 03:17:36;;;;;;;1.13;0.70;;;;;;;9.76;100.00;97232.59;5012514;28;20065;-86
2023/04/19 03:20:03;;;;;;;1.48;1.00;;;;;;;9.78;100.00;97238.72;5012460;28;20029;-87
2023/04/19 03:22:29;;;;;;;3.95;2.67;;;;;;;9.71;100.00;97232.03;5012799;28;20105;-87
2023/04/19 03:24:55;;;;;;;3.45;2.80;;;;;;;9.70;100.00;97231.19;5029111;28;20104;-87
2023/04/19 03:27:21;;;;;;;6.65;3.13;;;;;;;9.71;100.00;97242.72;5012660;28;20112;-89
2023/04/19 03:29:46;;;;;;;3.85;3.45;;;;;;;9.70;100.00;97241.88;5029248;28;20026;-88
2023/04/19 03:32:12;;;;;;;5.78;2.45;;;;;;;9.63;100.00;97228.97;5012501;28;20341;-86
2023/04/19 03:34:37;;;;;;;1.00;0.70;;;;;;;9.51;100.00;97235.09;5012597;28;20074;-77
2023/04/19 03:37:03;;;;;;;3.10;1.10;;;;;;;9.39;100.00;97230.53;5011699;28;20032;-82
2023/04/19 03:39:28;;;;;;;2.08;0.73;;;;;;;9.32;100.00;97239.91;5012410;28;20087;-89
2023/04/19 03:41:54;;;;;;;0.70;0.70;;;;;;;9.34;100.00;97244.19;5013591;28;20075;-87
2023/04/19 03:44:19;;;;;;;2.08;1.00;;;;;;;9.31;100.00;97247.03;5012474;28;20025;-88
2023/04/19 03:46:47;;;;;;;1.02;0.95;;;;;;;9.24;100.00;97243.03;5012524;28;20500;-88
2023/04/19 03:49:12;;;;;;;2.28;1.48;;;;;;;9.31;100.00;97259.53;5002827;28;20065;-89
2023/04/19 03:51:38;;;;;;;0.85;0.70;;;;;;;9.24;100.00;97257.22;5052057;28;20065;-89
2023/04/19 03:54:04;;;;;;;1.55;1.45;;;;;;;9.20;100.00;97247.69;5013935;28;20030;-88
2023/04/19 03:56:29;;;;;;;1.05;0.98;;;;;;;9.34;100.00;97268.19;5013025;28;20662;-89
2023/04/19 03:58:55;;;;;;;0.75;0.75;;;;;;;9.33;100.00;97254.94;4993663;28;20026;-89
2023/04/19 04:01:21;;;;;;;0.52;0.52;;;;;;;9.40;100.00;97269.63;5012908;28;20113;-89
2023/04/19 04:03:46;;;;;;;0.60;0.60;;;;;;;9.34;100.00;97254.84;5012233;28;20021;-89
2023/04/19 04:06:12;;;;;;;0.95;0.75;;;;;;;9.26;100.00;97243.78;5028901;28;20036;-90
2023/04/19 04:08:37;;;;;;;0.25;0.25;;;;;;;9.38;100.00;97252.84;5011716;28;20104;-77
2023/04/19 04:11:03;;;;;;;4.03;0.63;;;;;;;9.49;100.00;97269.06;5010151;28;20041;-75
2023/04/19 04:13:29;;;;;;;1.27;1.17;;;;;;;9.49;100.00;97258.38;5010842;28;20035;-77
2023/04/19 04:15:54;;;;;;;1.23;1.02;;;;;;;9.44;100.00;97264.03;5028873;28;20025;-75
2023/04/19 04:18:20;;;;;;;1.23;0.82;;;;;;;9.45;100.00;97267.50;5036114;28;20041;-88
2023/04/19 04:20:45;;;;;;;2.45;1.27;;;;;;;9.50;100.00;97270.78;5015396;28;20098;-85
2023/04/19 04:23:11;;;;;;;0.55;0.55;;;;;;;9.46;100.00;97258.56;5011593;28;20112;-75
2023/04/19 04:25:38;;;;;;;4.15;0.73;;;;;;;9.39;100.00;97259.88;5028633;28;20506;-87
2023/04/19 04:28:03;;;;;;;1.00;0.85;;;;;;;9.33;100.00;97242.44;5011826;28;20480;-87
2023/04/19 04:30:29;;;;;;;2.67;1.35;;;;;;;9.41;100.00;97245.53;5028018;28;20102;-88
2023/04/19 04:32:56;;;;;;;1.08;1.00;;;;;;;9.45;100.00;97256.84;5011072;28;20030;-86
2023/04/19 04:35:22;;;;;;;0.70;0.32;;;;;;;9.42;100.00;97254.38;5027280;28;20217;-83
2023/04/19 04:37:48;;;;;;;1.40;1.30;;;;;;;9.44;100.00;97261.34;5011534;28;20127;-81
2023/04/19 04:40:14;;;;;;;1.50;1.40;;;;;;;9.34;100.00;97248.66;5011436;28;20026;-79
2023/04/19 04:42:41;;;;;;;1.00;0.98;;;;;;;9.34;100.00;97252.19;5027516;28;20023;-80
2023/04/19 04:45:09;;;;;;;0.90;0.90;;;;;;;9.32;100.00;97255.91;5027733;28;20082;-82
2023/04/19 04:47:35;;;;;;;0.88;0.55;;;;;;;9.40;100.00;97265.16;5027437;28;20017;-82
2023/04/19 04:50:01;;;;;;;0.60;0.60;;;;;;;9.46;100.00;97263.91;5007316;28;20163;-83
2023/04/19 04:52:27;;;;;;;0.60;0.60;;;;;;;9.49;100.00;97258.38;5007102;28;20021;-83
2023/04/19 04:55:12;;;;;;;0.68;0.68;;;;;;;9.63;100.00;97266.38;5004087;28;20412;-84
2023/04/19 04:57:38;;;;;;;36.97;2.53;;;;;;;9.69;100.00;97272.19;5020356;28;20042;-83
2023/04/19 05:00:05;;;;;;;1.80;0.90;;;;;;;9.68;100.00;97261.63;4988595;28;20079;-83
2023/04/19 05:02:31;;;;;;;1.08;1.00;;;;;;;9.70;100.00;97267.72;5073075;28;20028;-83
2023/04/19 05:04:57;;;;;;;0.88;0.88;;;;;;;9.74;100.00;97261.22;5073274;28;20084;-81
2023/04/19 05:07:22;;;;;;;2.40;1.15;;;;;;;9.78;100.00;97266.25;5073015;28;20050;-81
2023/04/19 05:09:49;;;;;;;1.20;1.13;;;;;;;9.77;100.00;97263.72;5092145;28;20452;-83
2023/04/19 05:12:14;;;;;;;2.05;0.80;;;;;;;9.77;100.00;97271.72;5090582;28;20027;-83
2023/04/19 05:14:40;;;;;;;1.67;1.45;;;;;;;9.76;100.00;97260.16;5097854;28;20325;-83
2023/04/19 05:17:05;;;;;;;28.60;2.67;;;;;;;9.86;100.00;97270.28;5078907;28;20047;-82
2023/04/19 05:19:31;;;;;;;12.68;6.90;;;;;;;9.86;100.00;97257.78;5077169;28;20043;-83
2023/04/19 05:21:56;;;;;;;9.40;2.72;;;;;;;9.89;100.00;97262.94;5101317;28;20023;-82
2023/04/19 05:24:22;;;;;;;2.08;1.88;;;;;;;9.87;100.00;97251.50;5079034;28;20024;-80
2023/04/19 05:26:47;;;;;;;6.63;3.75;;;;;;;9.94;100.00;97260.81;5096273;28;20024;-82
2023/04/19 05:29:13;;;;;;;14.20;3.75;;;;;;;9.92;100.00;97252.03;5086962;28;20516;-81
2023/04/19 05:31:38;;;;;;;10.82;4.88;;;;;;;9.96;100.00;97252.72;5093334;28;20046;-83
2023/04/19 05:34:04;;;;;;;13.32;3.58;;;;;;;10.01;100.00;97243.44;5088817;28;20031;-81
2023/04/19 05:36:29;;;;;;;6.20;4.68;;;;;;;10.05;100.00;97257.47;5093694;28;20027;-81
2023/04/19 05:38:55;;;;;;;3.28;2.97;;;;;;;10.11;100.00;97251.72;5075742;28;20019;-83
2023/04/19 05:41:20;;;;;;;11.35;6.07;;;;;;;10.09;100.00;97249.13;5084876;28;20022;-82
2023/04/19 05:43:46;;;;;;;7.35;3.65;;;;;;;10.04;100.00;97239.69;5095601;28;20505;-83
2023/04/19 05:46:11;;;;;;;2.58;1.98;;;;;;;10.08;100.00;97239.41;5096833;28;20026;-82
2023/04/19 05:48:36;;;;;;;11.85;4.43;;;;;;;10.08;100.00;97241.22;5111217;28;20023;-83
2023/04/19 05:51:02;;;;;;;5.78;2.53;;;;;;;10.11;100.00;97235.69;5076216;28;20058;-83
2023/04/19 05:53:28;;;;;;;2.10;1.90;;;;;;;10.16;100.00;97234.44;5076487;28;20476;-82
2023/04/19 05:55:53;;;;;;;9.23;3.47;;;;;;;10.16;100.00;97237.13;5076261;28;20023;-83
2023/04/19 05:58:19;;;;;;;3.83;2.53;;;;;;;10.14;100.00;97244.41;5077011;28;20126;-83
2023/04/19 06:00:45;;;;;;;10.63;3.25;;;;;;;10.19;100.00;97242.28;5076433;28;20036;-83
2023/04/19 06:03:11;;;;;;;4.05;2.45;;;;;;;10.22;100.00;97239.41;5095049;28;20497;-82
2023/04/19 06:05:39;;;;;;;4.55;3.17;;;;;;;10.15;100.00;97222.03;5081238;28;20028;-82
2023/04/19 06:08:04;;;;;;;4.72;3.35;;;;;;;10.15;100.00;97216.69;5086848;28;20553;-82
2023/04/19 06:10:30;;;;;;;5.43;2.35;;;;;;;10.21;100.00;97210.94;5083581;28;20059;-81
2023/04/19 06:12:55;;;;;;;4.93;3.38;;;;;;;10.21;100.00;97215.47;5087654;28;20738;-82
2023/04/19 06:15:21;;;;;;;5.50;3.35;;;;;;;10.31;100.00;97219.22;5101790;28;20082;-82
2023/04/19 06:17:47;;;;;;;4.63;1.67;;;;;;;10.36;100.00;97218.94;5085700;28;20039;-83
2023/04/19 06:20:13;;;;;;;1.85;1.20;;;;;;;10.44;100.00;97213.91;5081536;28;20521;-83
2023/04/19 06:22:44;;;;;;;3.47;2.53;;;;;;;10.48;100.00;97207.41;5080228;28;20032;-82
2023/04/19 06:25:10;;;;;;;3.28;2.72;;;;;;;10.52;100.00;97203.59;5096041;28;20020;-84
2023/04/19 06:27:36;;;;;;;10.27;4.78;;;;;;;10.50;100.00;97213.50;5096007;28;20046;-81
2023/04/19 06:30:02;;;;;;;4.35;3.25;;;;;;;10.49;100.00;97207.28;5080873;28;20056;-83
2023/04/19 06:32:27;;;;;;;2.67;1.92;;;;;;;10.51;100.00;97202.72;5100728;28;20031;-83
2023/04/19 06:34:53;;;;;;;4.53;3.15;;;;;;;10.49;100.00;97209.97;5083811;28;20040;-83
2023/04/19 06:37:18;;;;;;;5.45;2.78;;;;;;;10.48;100.00;97207.41;5105895;28;20088;-83
2023/04/19 06:39:44;;;;;;;3.88;2.03;;;;;;;10.48;100.00;97208.28;5084367;28;20101;-83
2023/04/19 06:42:11;;;;;;;2.95;1.73;;;;;;;10.51;100.00;97212.56;5081441;28;20027;-84
2023/04/19 06:44:36;;;;;;;3.47;2.25;;;;;;;10.50;100.00;97205.47;5117405;28;20032;-83
2023/04/19 06:47:02;;;;;;;1.58;1.48;;;;;;;10.50;100.00;97194.78;5081714;28;20026;-83
2023/04/19 06:49:28;;;;;;;2.50;2.05;;;;;;;10.45;100.00;97189.75;5081616;28;20046;-84
2023/04/19 06:51:53;;;;;;;2.58;1.55;;;;;;;10.52;100.00;97200.91;5081851;28;20410;-83
2023/04/19 06:54:19;;;;;;;1.42;1.08;;;;;;;10.48;100.00;97194.91;5099921;28;20035;-83
2023/04/19 06:56:46;;;;;;;3.22;1.38;;;;;;;10.44;100.00;97201.41;5098638;28;20020;-83
2023/04/19 06:59:13;;;;;;;4.57;2.03;;;;;;;10.47;100.00;97221.72;5097285;28;20498;-84
2023/04/19 07:01:39;;;;;;;1.88;1.70;;;;;;;10.45;100.00;97227.19;5080464;28;20027;-84
2023/04/19 07:04:06;;;;;;;8.05;3.35;;;;;;;10.48;100.00;97216.28;5081671;28;20028;-83
2023/04/19 07:06:32;;;;;;;2.30;1.65;;;;;;;10.51;100.00;97212.56;5099408;28;20027;-83
2023/04/19 07:08:58;;;;;;;2.28;1.80;;;;;;;10.46;100.00;97215.53;5101851;28;20079;-83
2023/04/19 07:11:23;;;;;;;2.42;1.60;;;;;;;10.59;100.00;97220.91;5100526;28;20069;-81
2023/04/19 07:13:50;;;;;;;10.25;5.35;;;;;;;10.68;100.00;97210.44;5079411;28;20020;-82
2023/04/19 07:16:15;;;;;;;5.63;3.40;;;;;;;10.87;100.00;97215.41;5079546;28;20030;-83
2023/04/19 07:18:42;;;;;;;5.60;3.50;;;;;;;10.95;100.00;97201.50;5085142;28;20031;-83
2023/04/19 07:21:08;;;;;;;3.85;2.60;;;;;;;10.90;100.00;97193.78;5085399;28;20020;-82
2023/04/19 07:23:33;;;;;;;2.20;1.85;;;;;;;10.84;100.00;97175.47;5104025;28;20034;-83
2023/04/19 07:25:59;;;;;;;3.67;2.10;;;;;;;11.00;100.00;97188.66;5084330;28;20027;-82
2023/04/19 07:28:24;;;;;;;2.65;1.98;;;;;;;11.18;100.00;97200.75;5097951;28;20026;-82
2023/04/19 07:30:50;;;;;;;2.90;2.10;;;;;;;11.25;100.00;97199.38;5100468;28;20058;-82
2023/04/19 07:33:15;;;;;;;7.38;2.97;;;;;;;11.39;100.00;97186.72;5118827;28;20019;-82
2023/04/19 07:35:41;;;;;;;2.17;1.83;;;;;;;11.42;100.00;97172.25;5078915;28;20096;-80
2023/04/19 07:38:06;;;;;;;13.00;5.65;;;;;;;11.51;100.00;97178.75;5078175;28;20146;-79
2023/04/19 07:40:32;;;;;;;4.38;2.20;;;;;;;11.64;100.00;97163.53;5096799;28;20391;-83
2023/04/19 07:42:57;;;;;;;6.95;4.15;;;;;;;11.64;100.00;97159.03;5100035;28;20016;-81
2023/04/19 07:45:23;;;;;;;2.90;1.45;;;;;;;11.84;100.00;97152.28;5083954;28;20371;-82
2023/04/19 07:47:49;;;;;;;1.25;1.15;;;;;;;11.97;100.00;97153.06;5084474;28;20015;-82
2023/04/19 07:50:14;;;;;;;3.67;2.00;;;;;;;12.14;100.00;97155.38;5111349;27;20044;-81
2023/04/19 07:52:40;;;;;;;3.50;1.42;;;;;;;12.31;100.00;97138.00;5093902;28;20437;-82
2023/04/19 07:55:06;;;;;;;1.15;0.75;;;;;;;12.51;100.00;97140.03;5117796;27;20038;-81
2023/04/19 07:57:33;;;;;;;4.40;2.45;;;;;;;12.51;100.00;97129.31;5117708;27;20079;-82
2023/04/19 08:00:00;;;;;;;1.20;1.10;;;;;;;13.11;100.00;97122.84;5085205;27;20027;-80
2023/04/19 08:02:29;;;;;;;1.55;1.13;;;;;;;13.72;100.00;97118.81;5103576;28;20026;-80
2023/04/19 08:04:55;;;;;;;1.92;1.35;;;;;;;14.35;100.00;97115.34;5093243;28;20030;-82
2023/04/19 08:07:22;;;;;;;1.55;1.17;;;;;;;14.20;100.00;97106.69;5105625;27;20045;-83
2023/04/19 08:09:48;;;;;;;2.67;2.00;;;;;;;14.31;100.00;97095.88;5107873;28;20024;-83
2023/04/19 08:12:13;;;;;;;0.85;0.85;;;;;;;14.00;100.00;97102.97;5098471;27;20027;-83
2023/04/19 08:14:39;;;;;;;3.83;1.45;;;;;;;13.92;100.00;97097.38;5096612;27;20031;-83
2023/04/19 08:17:05;;;;;;;1.05;0.98;;;;;;;14.01;100.00;97098.44;5090724;28;20064;-82
2023/04/19 08:19:30;;;;;;;1.75;1.40;;;;;;;14.15;100.00;97079.31;5095329;27;20497;-82
2023/04/19 08:21:56;;;;;;;0.98;0.75;;;;;;;14.45;100.00;97060.63;5102500;28;20027;-83
2023/04/19 08:24:22;;;;;;;1.65;1.15;;;;;;;14.83;100.00;97060.00;5104356;28;20027;-82
2023/04/19 08:26:52;;;;;;;9.13;2.40;;;;;;;15.32;100.00;97067.34;5102986;27;20096;-82
2023/04/19 08:29:19;;;;;;;6.22;1.20;;;;;;;15.68;100.00;97063.25;5098324;27;20061;-83
2023/04/19 08:31:45;;;;;;;1.60;0.75;;;;;;;16.36;100.00;97054.25;5088158;28;20483;-83
2023/04/19 08:34:10;;;;;;;0.98;0.93;;;;;;;17.69;100.00;97046.75;5110701;27;20023;-82
2023/04/19 08:36:36;;;;;;;2.10;1.00;;;;;;;18.46;100.00;97031.84;5117647;27;20046;-83
2023/04/19 08:39:02;;;;;;;0.80;0.73;;;;;;;18.94;91.19;97007.84;5089999;28;20542;-83
2023/04/19 08:41:29;;;;;;;1.00;0.90;;;;;;;19.26;90.83;96996.28;5081065;27;20049;-83
2023/04/19 08:43:55;;;;;;;1.65;1.23;;;;;;;20.36;84.91;96991.59;5084051;28;20020;-83
2023/04/19 08:46:22;;;;;;;1.38;1.08;;;;;;;21.37;74.81;96981.94;5104462;28;20023;-82
2023/04/19 08:48:49;;;;;;;3.95;2.42;;;;;;;22.32;67.40;96957.06;5110474;27;20027;-83
2023/04/19 08:51:16;;;;;;;1.75;1.10;;;;;;;24.09;58.81;96953.38;5099182;27;20034;-82
2023/04/19 08:53:43;;;;;;;1.85;0.88;;;;;;;25.58;50.11;96923.91;5101877;28;20483;-82
2023/04/19 08:56:10;;;;;;;1.83;0.88;;;;;;;25.16;50.26;96897.56;5095534;28;20131;-81
2023/04/19 08:58:36;;;;;;;3.58;1.33;;;;;;;24.51;54.94;96925.25;5078502;28;20031;-81
2023/04/19 09:01:06;;;;;;;2.28;1.55;;;;;;;21.73;62.00;96920.50;5078919;28;20038;-82
2023/04/19 09:03:32;;;;;;;0.90;0.90;;;;;;;22.01;61.96;96932.59;5097951;28;20043;-82
2023/04/19 09:05:59;;;;;;;8.98;1.38;;;;;;;21.11;65.23;96937.78;5106292;28;20024;-81
2023/04/19 09:08:27;;;;;;;1.38;1.05;;;;;;;19.92;72.71;96964.69;5085785;27;20108;-82
2023/04/19 09:10:55;;;;;;;1.95;1.50;;;;;;;18.74;82.78;96977.38;5094611;28;20093;-81
2023/04/19 09:13:21;;;;;;;1.75;1.20;;;;;;;17.91;96.71;97014.88;5094147;27;20027;-82
2023/04/19 09:15:46;;;;;;;1.13;0.82;;;;;;;17.95;100.00;97018.97;5106227;28;20027;-81
2023/04/19 09:18:13;;;;;;;1.02;0.70;;;;;;;17.76;96.53;97006.44;5096041;27;20030;-81
2023/04/19 09:20:40;;;;;;;1.50;1.15;;;;;;;16.99;100.00;97020.31;5086638;28;20035;-81
2023/04/19 09:23:08;;;;;;;1.40;0.93;;;;;;;17.51;100.00;97021.50;5100352;28;20041;-82
2023/04/19 09:25:34;;;;;;;2.72;1.75;;;;;;;17.85;100.00;97025.31;5104502;27;20076;-81
2023/04/19 09:28:11;;;;;;;3.35;2.00;;;;;;;18.59;94.55;97007.91;5095550;28;20027;-82
2023/04/19 09:30:36;;;;;;;2.15;1.20;;;;;;;19.21;88.46;96998.66;5105047;28;20407;-82
2023/04/19 09:33:02;;;;;;;2.97;1.17;;;;;;;19.31;88.09;96994.81;5091700;27;20042;-82
2023/04/19 09:35:48;;;;;;;2.00;1.10;;;;;;;21.07;79.89;97014.28;5110555;28;20027;-83
2023/04/19 09:38:15;;;;;;;1.38;0.95;;;;;;;23.23;61.36;96984.16;5099864;28;20067;-83
2023/04/19 09:40:41;;;;;;;3.17;1.25;;;;;;;24.07;61.17;96988.25;5115512;28;20019;-82
2023/04/19 09:43:07;;;;;;;1.10;1.00;;;;;;;22.19;65.65;96972.31;5086859;28;20532;-82
2023/04/19 09:45:40;;;;;;;20.73;11.52;;;;;;;22.95;63.50;96986.69;5074506;28;20176;-82
2023/04/19 09:48:06;;;;;;;15.60;9.30;;;;;;;24.42;53.55;96964.69;5096727;27;20051;-82
2023/04/19 09:50:32;;;;;;;15.10;9.43;;;;;;;25.25;48.83;96943.72;5112952;28;20127;-82
2023/04/19 09:52:58;;;;;;;12.93;8.80;;;;;;;23.94;53.02;96942.50;5113059;28;20027;-81
2023/04/19 09:55:25;;;;;;;15.15;8.73;;;;;;;24.73;50.30;96943.31;5098377;28;20039;-81
2023/04/19 09:57:51;;;;;;;15.35;9.98;;;;;;;24.30;51.62;96931.56;5075740;28;20409;-82
2023/04/19 10:00:17;;;;;;;20.05;10.48;;;;;;;23.78;56.47;96937.25;5106083;28;20058;-82
2023/04/19 10:02:44;;;;;;;15.70;8.48;;;;;;;24.22;53.24;96943.47;5099642;28;20545;-80
2023/04/19 10:05:09;;;;;;;16.75;8.30;;;;;;;24.57;50.28;96924.44;5096530;28;20110;-82
2023/04/19 10:07:36;;;;;;;14.40;8.73;;;;;;;25.04;49.98;96927.34;5091563;28;20102;-82
2023/04/19 10:10:02;;;;;;;13.50;7.85;;;;;;;26.28;45.19;96921.63;5106079;27;20023;-81
2023/04/19 10:12:28;;;;;;;12.48;7.78;;;;;;;27.72;42.46;96908.81;5095420;27;20402;-82
2023/04/19 10:14:56;;;;;;;20.85;8.98;;;;;;;27.14;46.21;96917.00;5115245;27;20034;-82
2023/04/19 10:17:22;;;;;;;14.85;8.18;;;;;;;27.97;43.24;96912.53;5114418;27;20030;-83
2023/04/19 10:19:51;;;;;;;10.27;7.82;;;;;;;29.18;40.80;96911.25;5086378;28;20043;-82
2023/04/19 10:22:17;;;;;;;11.77;8.35;;;;;;;25.82;44.02;96865.81;5092304;27;20014;-82
2023/04/19 10:25:12;;;;;;;16.00;9.18;;;;;;;24.00;49.60;96892.53;5104756;28;20554;-81
2023/04/19 10:27:38;;;;;;;19.85;10.00;;;;;;;23.19;53.07;96890.91;5096312;28;20023;-82
2023/04/19 10:30:09;;;;;;;13.02;9.00;;;;;;;22.48;53.34;96879.75;5079202;28;20020;-84
2023/04/19 10:32:39;;;;;;;11.85;7.93;;;;;;;21.53;56.53;96881.16;5088665;28;20031;-83
2023/04/19 10:35:25;;;;;;;13.75;8.75;;;;;;;20.43;69.03;96901.06;5109463;27;20022;-81
2023/04/19 10:38:13;;;;;;;14.88;8.18;;;;;;;19.59;71.90;96905.94;5110336;27;20026;-81
2023/04/19 10:41:13;;;;;;;15.38;8.65;;;;;;;19.22;76.77;96911.72;5112459;27;20030;-81
2023/04/19 10:43:40;;;;;;;11.48;7.25;;;;;;;19.01;75.79;96899.63;5081539;28;20065;-81
2023/04/19 10:46:12;;;;;;;11.10;7.68;;;;;;;19.88;71.78;96916.31;5092624;27;20023;-80
2023/04/19 10:48:39;;;;;;;;;;;;;;;20.54;69.50;96918.88;5113296;28;20038;-82
2023/04/19 10:51:13;;;;;;;10.05;6.72;;;;;;;20.69;62.82;96895.41;5116967;27;19952;-81
2023/04/19 10:53:42;;;;;;;12.48;7.93;;;;;;;20.11;66.81;96884.78;5117757;27;20054;-81
2023/04/19 10:56:08;;;;;;;11.95;6.68;;;;;;;19.08;71.74;96874.38;5118420;27;20421;-81
2023/04/19 10:59:09;;;;;;;11.20;7.10;;;;;;;19.38;76.45;96898.19;5102556;27;20031;-83
2023/04/19 11:01:45;;;;;;;10.77;6.10;;;;;;;19.34;70.55;96886.00;5107700;27;20037;-82
2023/04/19 11:04:12;;;;;;;11.40;6.55;;;;;;;18.78;72.43;96878.50;5100834;27;20027;-81
2023/04/19 11:07:02;;;;;;;9.30;5.72;;;;;;;18.33;76.59;96877.88;5099816;27;20023;-82
2023/04/19 11:09:30;;;;;;;11.85;6.80;;;;;;;18.05;79.19;96884.44;5097930;27;20059;-82
2023/04/19 11:12:09;;;;;;;11.43;6.63;;;;;;;19.06;78.14;96899.97;5082870;28;20085;-76
2023/04/19 11:14:56;;;;;;;10.43;5.72;;;;;;;20.11;68.96;96892.06;5102768;27;20162;-74
2023/04/19 11:17:30;;;;;;;7.72;5.07;;;;;;;20.62;62.11;96894.41;5098269;28;20030;-76
2023/04/19 11:19:56;;;;;;;9.68;5.43;;;;;;;20.34;63.03;96880.34;5115597;27;20031;-77
2023/04/19 11:22:38;;;;;;;5.50;4.40;;;;;;;20.71;59.17;96877.06;5115449;27;20015;-76
2023/04/19 11:25:10;;;;;;;9.38;5.63;;;;;;;20.65;64.71;96898.63;5102097;27;20018;-76
2023/04/19 11:27:36;;;;;;;8.63;5.82;;;;;;;20.04;69.28;96883.75;5115692;27;20478;-76